BIENTÔT MET'MAP
version 2.0 !

Prévue avant fin octobre,
la nouvelle version sera
plus belle, plus complète
et hébergée sur un serveur
3 fois plus puissant...
et toujours gratuite !


Pas compatible ?
Essayez la version Mobile !

SE CONNECTER : | S'inscrire | Disclaimer | Découvrir Orbifly |
Code OACI :

TAF - EGPE Inverness - 10 Apr 2020 05:18 UTC - Data Source NOAA   


- Altitude de l'aérodrome : 31 ft
- Code IATA : INV
- Pas de NOTAMs connus.


EGPE - Inverness

Dernier METAR connu : 2015/08/11 07:50 EGPE 110750Z 27006KT 9999 FEW005 SCT020 BKN036 12/10 Q1016
TAF TAF EGPE
Valide du 10 à 03h jusqu'au 10 à 12h UTC


100154Z 1003/1012 VRB03KT 9999 SCT030
PROB30 1003/1006 8000
PROB30
TEMPO 1006/1010 6000 SHRA

Source NOAA
ATIS : +44 1667 464 255


MET'MAP, la Météo Aéronautique d'un coup d'oeil ! - Copyright ORBIFLY Décembre 2007

Développement & Programmation : Alexandra Zaïnal
Co-Développement : Marc-Olivier Méhu
Soutien technique & logistique : Manuel Goepfert
Conception & Financement : Baudouin d'Aumeries